Time;durP1;ratioP1;P1;durP2;ratioP2;P2;SDS_P1;SDS_P2;PMS_P1;PMS_P2;Temp;Humidity;BMP_temperature;BMP_pressure;BME280_temperature;BME280_humidity;BME280_pressure;Samples;Min_cycle;Max_cycle;Signal;HPM_P1;HPM_P2
2023/02/23 00:00:19;;;;;;;1.70;1.60;;;;;;;;;;5012552;28;20463;-88
2023/02/23 00:02:47;;;;;;;1.60;1.50;;;;;;;;;;5013024;28;20050;-88
2023/02/23 00:05:13;;;;;;;2.20;1.75;;;;;;;;;;5012580;28;20046;-87
2023/02/23 00:07:42;;;;;;;1.52;1.50;;;;;;;;;;5013261;28;20045;-88
2023/02/23 00:10:10;;;;;;;1.60;1.50;;;;;;;;;;5013158;28;20060;-88
2023/02/23 00:12:37;;;;;;;1.83;1.73;;;;;;;;;;5012732;28;20049;-88
2023/02/23 00:15:04;;;;;;;2.17;2.08;;;;;;;;;;5012504;28;20042;-87
2023/02/23 00:17:32;;;;;;;2.28;2.13;;;;;;;;;;5012984;28;20062;-88
2023/02/23 00:19:59;;;;;;;2.45;2.35;;;;;;;;;;5012618;28;20132;-88
2023/02/23 00:22:25;;;;;;;2.92;2.70;;;;;;;;;;5012786;28;20046;-88
2023/02/23 00:24:52;;;;;;;1.60;1.50;;;;;;;;;;5012726;28;20530;-87
2023/02/23 00:27:19;;;;;;;2.15;1.98;;;;;;;;;;5012889;28;20038;-88
2023/02/23 00:29:48;;;;;;;1.92;1.83;;;;;;;;;;5012763;28;20048;-87
2023/02/23 00:32:18;;;;;;;1.63;1.55;;;;;;;;;;5012786;28;20054;-88
2023/02/23 00:34:48;;;;;;;2.10;2.00;;;;;;;;;;5012578;28;20065;-87
2023/02/23 00:37:14;;;;;;;2.05;1.95;;;;;;;;;;5012580;28;20053;-88
2023/02/23 00:39:41;;;;;;;2.65;2.55;;;;;;;;;;5012202;28;20104;-87
2023/02/23 00:42:09;;;;;;;2.15;1.75;;;;;;;;;;5012296;28;20427;-88
2023/02/23 00:44:39;;;;;;;2.95;2.75;;;;;;;;;;5012374;28;20060;-87
2023/02/23 00:47:05;;;;;;;3.03;2.83;;;;;;;;;;5018855;28;20128;-87
2023/02/23 00:49:32;;;;;;;3.13;2.08;;;;;;;;;;5032245;28;20100;-88
2023/02/23 00:52:00;;;;;;;2.05;1.88;;;;;;;;;;5032346;28;20134;-88
2023/02/23 00:54:27;;;;;;;3.05;2.47;;;;;;;;;;5031947;28;20076;-87
2023/02/23 00:56:53;;;;;;;1.65;1.55;;;;;;;;;;5031725;28;20041;-87
2023/02/23 00:59:20;;;;;;;2.13;2.03;;;;;;;;;;5032160;28;20057;-87
2023/02/23 01:01:47;;;;;;;1.45;1.40;;;;;;;;;;5028714;28;20093;-87
2023/02/23 01:04:15;;;;;;;2.00;1.90;;;;;;;;;;5014104;28;20042;-87
2023/02/23 01:06:42;;;;;;;2.35;1.83;;;;;;;;;;5015541;28;20045;-87
2023/02/23 01:09:10;;;;;;;2.08;1.98;;;;;;;;;;5015745;28;20526;-87
2023/02/23 01:11:37;;;;;;;2.25;2.13;;;;;;;;;;5015680;28;20057;-87
2023/02/23 01:14:04;;;;;;;1.95;1.85;;;;;;;;;;5015541;28;20054;-87
2023/02/23 01:16:31;;;;;;;1.80;1.70;;;;;;;;;;5015764;28;20045;-87
2023/02/23 01:18:58;;;;;;;1.65;1.55;;;;;;;;;;5016104;28;20089;-87
2023/02/23 01:21:25;;;;;;;1.10;1.05;;;;;;;;;;5015866;28;20104;-87
2023/02/23 01:23:52;;;;;;;1.13;1.10;;;;;;;;;;5015390;28;20054;-87
2023/02/23 01:26:21;;;;;;;2.55;2.40;;;;;;;;;;5015384;28;20069;-87
2023/02/23 01:28:49;;;;;;;3.00;2.80;;;;;;;;;;5015419;28;20045;-88
2023/02/23 01:31:15;;;;;;;2.28;2.17;;;;;;;;;;5015319;28;20049;-87
2023/02/23 01:33:42;;;;;;;1.52;1.45;;;;;;;;;;5032388;28;20049;-87
2023/02/23 01:36:08;;;;;;;1.85;1.80;;;;;;;;;;5034896;28;20119;-87
2023/02/23 01:38:35;;;;;;;2.90;1.95;;;;;;;;;;5034952;28;20057;-87
2023/02/23 01:41:01;;;;;;;2.30;2.20;;;;;;;;;;5034957;28;20096;-87
2023/02/23 01:43:29;;;;;;;3.88;1.73;;;;;;;;;;5020257;28;20057;-87
2023/02/23 01:45:56;;;;;;;2.20;2.08;;;;;;;;;;5014944;28;20487;-87
2023/02/23 01:48:25;;;;;;;1.95;1.85;;;;;;;;;;5015335;28;20053;-87
2023/02/23 01:50:54;;;;;;;2.20;2.10;;;;;;;;;;5015244;28;20070;-87
2023/02/23 01:53:21;;;;;;;1.58;1.50;;;;;;;;;;5015121;28;20104;-87
2023/02/23 01:55:49;;;;;;;2.58;2.47;;;;;;;;;;5014913;28;20049;-87
2023/02/23 01:58:18;;;;;;;2.35;2.25;;;;;;;;;;5015213;28;20050;-87
2023/02/23 02:00:48;;;;;;;2.08;1.98;;;;;;;;;;5014766;28;20053;-87
2023/02/23 02:03:17;;;;;;;1.73;1.63;;;;;;;;;;5014891;28;20595;-87
2023/02/23 02:05:45;;;;;;;2.33;2.22;;;;;;;;;;5014577;28;20569;-87
2023/02/23 02:08:12;;;;;;;2.72;2.60;;;;;;;;;;5025520;28;20077;-87
2023/02/23 02:10:45;;;;;;;1.13;1.10;;;;;;;;;;5034725;28;20058;-87
2023/02/23 02:13:14;;;;;;;2.28;2.17;;;;;;;;;;5033952;28;20058;-87
2023/02/23 02:15:52;;;;;;;0.95;0.95;;;;;;;;;;5033853;28;20481;-88
2023/02/23 02:18:25;;;;;;;1.98;1.88;;;;;;;;;;5034207;28;20055;-87
2023/02/23 02:21:16;;;;;;;1.90;1.80;;;;;;;;;;5034579;28;20053;-87
2023/02/23 02:24:10;;;;;;;0.93;0.93;;;;;;;;;;5034146;28;20056;-87
2023/02/23 02:26:42;;;;;;;0.73;0.73;;;;;;;;;;5034166;28;20052;-87
2023/02/23 02:29:33;;;;;;;1.10;1.05;;;;;;;;;;5034233;28;20046;-88
2023/02/23 02:32:14;;;;;;;1.40;1.35;;;;;;;;;;5034317;28;20061;-87
2023/02/23 02:35:04;;;;;;;1.35;1.30;;;;;;;;;;5034167;28;20053;-87
2023/02/23 02:37:36;;;;;;;1.45;1.38;;;;;;;;;;5033527;28;20057;-88
2023/02/23 02:40:18;;;;;;;0.95;0.95;;;;;;;;;;5033878;28;20049;-87
2023/02/23 02:42:49;;;;;;;2.28;2.13;;;;;;;;;;5028458;28;20519;-86
2023/02/23 02:45:22;;;;;;;1.58;1.48;;;;;;;;;;5014107;28;20053;-87
2023/02/23 02:47:54;;;;;;;1.00;1.00;;;;;;;;;;5014132;28;20470;-87
2023/02/23 02:50:23;;;;;;;1.48;1.38;;;;;;;;;;5013979;28;20050;-87
2023/02/23 02:52:54;;;;;;;1.67;1.55;;;;;;;;;;5014306;28;20054;-87
2023/02/23 02:55:23;;;;;;;1.42;1.30;;;;;;;;;;5013928;28;20391;-87
2023/02/23 02:57:50;;;;;;;3.38;3.10;;;;;;;;;;5013911;28;20458;-87
2023/02/23 04:17:49;;;;;;;2.22;1.48;;;;;;;;;;5032714;28;20053;-87
2023/02/23 04:20:16;;;;;;;2.42;2.22;;;;;;;;;;5032530;28;20057;-88
2023/02/23 04:22:42;;;;;;;1.77;1.67;;;;;;;;;;5032666;28;20041;-87
2023/02/23 04:25:10;;;;;;;3.35;3.08;;;;;;;;;;5013004;28;20581;-87
2023/02/23 04:27:37;;;;;;;1.15;1.05;;;;;;;;;;5013011;28;20132;-87
2023/02/23 04:30:04;;;;;;;8.68;1.20;;;;;;;;;;5012576;28;20407;-86
2023/02/23 04:32:32;;;;;;;4.40;2.22;;;;;;;;;;5012657;28;20045;-88
2023/02/23 04:34:58;;;;;;;0.90;0.90;;;;;;;;;;5012785;28;20446;-87
2023/02/23 04:37:25;;;;;;;2.58;2.42;;;;;;;;;;5012314;28;20042;-87
2023/02/23 04:39:51;;;;;;;0.60;0.60;;;;;;;;;;5031745;28;20068;-88
2023/02/23 04:42:18;;;;;;;1.13;1.13;;;;;;;;;;5038256;28;20053;-89
2023/02/23 04:44:45;;;;;;;1.73;1.63;;;;;;;;;;5036897;28;20050;-87
2023/02/23 04:47:11;;;;;;;2.63;2.53;;;;;;;;;;5036231;28;20054;-88
2023/02/23 04:49:39;;;;;;;2.75;2.65;;;;;;;;;;5035933;28;20502;-88
2023/02/23 04:52:06;;;;;;;1.83;1.70;;;;;;;;;;5036107;28;20045;-87
2023/02/23 04:54:32;;;;;;;2.80;2.60;;;;;;;;;;5022803;28;20639;-87
2023/02/23 04:56:59;;;;;;;2.42;2.33;;;;;;;;;;5016186;28;20061;-88
2023/02/23 04:59:25;;;;;;;2.88;2.78;;;;;;;;;;5015968;28;20045;-88
2023/02/23 05:01:52;;;;;;;1.85;1.75;;;;;;;;;;5016079;28;20045;-87
2023/02/23 05:04:18;;;;;;;4.82;3.08;;;;;;;;;;5026587;28;20407;-88
2023/02/23 05:06:46;;;;;;;2.95;2.38;;;;;;;;;;5036124;28;20107;-87
2023/02/23 05:09:13;;;;;;;2.03;1.90;;;;;;;;;;5035285;28;20053;-87
2023/02/23 05:11:39;;;;;;;2.10;2.00;;;;;;;;;;5036055;28;20092;-87
2023/02/23 05:14:06;;;;;;;2.22;2.13;;;;;;;;;;5027385;28;20096;-87
2023/02/23 05:16:33;;;;;;;8.60;1.75;;;;;;;;;;5015981;28;20108;-87
2023/02/23 05:18:59;;;;;;;1.10;1.10;;;;;;;;;;5016462;28;20062;-87
2023/02/23 05:21:26;;;;;;;1.13;1.10;;;;;;;;;;5015902;28;20042;-87
2023/02/23 05:23:53;;;;;;;1.17;1.10;;;;;;;;;;5015532;28;20045;-87
2023/02/23 05:26:20;;;;;;;3.25;1.90;;;;;;;;;;5015716;28;20049;-86
2023/02/23 05:28:47;;;;;;;1.52;1.42;;;;;;;;;;5015883;28;20054;-87
2023/02/23 05:31:14;;;;;;;1.85;1.77;;;;;;;;;;5015428;28;20144;-87
2023/02/23 05:33:42;;;;;;;1.25;1.15;;;;;;;;;;5015612;28;20073;-87
2023/02/23 05:36:09;;;;;;;1.92;1.83;;;;;;;;;;5015442;28;20130;-85
2023/02/23 05:38:36;;;;;;;2.65;2.47;;;;;;;;;;5015533;28;20052;-87
2023/02/23 05:41:06;;;;;;;2.63;2.47;;;;;;;;;;5015392;28;20053;-87
2023/02/23 05:43:33;;;;;;;2.88;2.78;;;;;;;;;;5015645;28;20045;-87
2023/02/23 05:46:00;;;;;;;1.02;1.00;;;;;;;;;;5015347;28;20052;-87
2023/02/23 05:48:26;;;;;;;1.25;1.23;;;;;;;;;;5015439;28;20116;-87
2023/02/23 05:50:53;;;;;;;1.17;1.15;;;;;;;;;;5014518;28;20061;-88
2023/02/23 05:53:19;;;;;;;1.80;1.40;;;;;;;;;;5014932;28;20061;-87
2023/02/23 05:55:46;;;;;;;2.15;2.05;;;;;;;;;;5034709;28;20056;-88
2023/02/23 05:58:15;;;;;;;3.47;2.63;;;;;;;;;;5035088;28;20103;-87
2023/02/23 06:00:42;;;;;;;1.17;1.08;;;;;;;;;;5015776;28;20050;-87
2023/02/23 06:03:09;;;;;;;4.10;3.75;;;;;;;;;;5015520;28;20119;-89
2023/02/23 06:05:35;;;;;;;2.08;1.98;;;;;;;;;;5014928;28;20053;-88
2023/02/23 06:08:02;;;;;;;1.98;1.85;;;;;;;;;;5014752;28;20050;-88
2023/02/23 06:10:28;;;;;;;1.67;1.58;;;;;;;;;;5014680;28;20110;-88
2023/02/23 06:12:55;;;;;;;0.70;0.70;;;;;;;;;;5014902;28;20038;-89
2023/02/23 06:15:23;;;;;;;1.98;1.88;;;;;;;;;;5014839;28;20053;-88
2023/02/23 06:17:49;;;;;;;3.47;2.05;;;;;;;;;;5014664;28;20460;-88
2023/02/23 06:20:16;;;;;;;1.42;1.33;;;;;;;;;;5014673;28;20054;-88
2023/02/23 06:22:42;;;;;;;2.45;2.25;;;;;;;;;;5014712;28;20053;-88
2023/02/23 06:25:11;;;;;;;1.92;1.65;;;;;;;;;;5014666;28;20139;-88
2023/02/23 06:27:38;;;;;;;2.45;1.73;;;;;;;;;;5014431;28;20085;-88
2023/02/23 06:30:05;;;;;;;5.13;4.70;;;;;;;;;;5014478;28;20053;-87
2023/02/23 06:32:32;;;;;;;11.57;4.40;;;;;;;;;;5014508;28;20046;-87
2023/02/23 06:34:59;;;;;;;8.90;4.70;;;;;;;;;;5014691;28;20057;-87
2023/02/23 06:37:26;;;;;;;6.25;5.22;;;;;;;;;;5014392;28;20065;-88
2023/02/23 06:39:52;;;;;;;4.50;3.20;;;;;;;;;;5014519;28;20054;-88
2023/02/23 06:42:19;;;;;;;4.55;3.70;;;;;;;;;;5014367;28;20482;-88
2023/02/23 06:44:45;;;;;;;3.20;3.00;;;;;;;;;;5014300;28;20108;-88
2023/02/23 06:47:12;;;;;;;4.93;4.55;;;;;;;;;;5014385;28;20131;-88
2023/02/23 06:49:40;;;;;;;2.67;2.55;;;;;;;;;;5013959;28;20573;-88
2023/02/23 06:52:06;;;;;;;2.78;2.55;;;;;;;;;;5014269;28;20148;-87
2023/02/23 06:54:34;;;;;;;3.30;3.00;;;;;;;;;;5014375;28;20057;-88
2023/02/23 06:57:00;;;;;;;1.52;1.42;;;;;;;;;;5013790;28;20084;-88
2023/02/23 06:59:26;;;;;;;4.13;3.83;;;;;;;;;;5013746;28;20554;-87
2023/02/23 07:01:53;;;;;;;4.63;4.22;;;;;;;;;;5014038;28;20057;-87
2023/02/23 07:04:19;;;;;;;2.60;2.50;;;;;;;;;;5014429;28;20396;-88
2023/02/23 07:06:47;;;;;;;8.23;3.40;;;;;;;;;;5013985;28;20111;-88
2023/02/23 07:09:15;;;;;;;2.55;2.42;;;;;;;;;;5014074;28;20100;-88
2023/02/23 07:11:43;;;;;;;9.07;4.60;;;;;;;;;;5014210;28;20052;-87
2023/02/23 07:14:11;;;;;;;5.05;2.83;;;;;;;;;;5014274;28;20065;-87
2023/02/23 07:16:38;;;;;;;4.68;4.38;;;;;;;;;;5014158;28;20153;-88
2023/02/23 07:19:05;;;;;;;4.38;3.88;;;;;;;;;;5013873;28;20053;-88
2023/02/23 07:21:32;;;;;;;3.83;3.47;;;;;;;;;;5013489;28;20514;-88
2023/02/23 07:24:03;;;;;;;2.75;2.55;;;;;;;;;;5013534;28;20073;-87
2023/02/23 07:26:30;;;;;;;4.68;4.35;;;;;;;;;;5013165;28;20088;-88
2023/02/23 07:28:56;;;;;;;5.25;4.75;;;;;;;;;;5012963;28;20104;-87
2023/02/23 07:31:23;;;;;;;7.75;4.60;;;;;;;;;;5013167;28;20116;-88
2023/02/23 07:33:49;;;;;;;4.70;4.32;;;;;;;;;;5013364;28;20459;-87
2023/02/23 07:36:16;;;;;;;3.17;2.75;;;;;;;;;;5031233;28;20049;-88
2023/02/23 07:38:42;;;;;;;5.50;5.07;;;;;;;;;;5033336;28;20045;-88
2023/02/23 07:41:10;;;;;;;3.97;3.67;;;;;;;;;;5015726;28;20092;-88
2023/02/23 07:43:37;;;;;;;8.43;5.40;;;;;;;;;;5013228;28;20058;-87
2023/02/23 07:46:03;;;;;;;3.30;2.88;;;;;;;;;;5013372;28;20546;-88
2023/02/23 07:48:30;;;;;;;3.63;3.38;;;;;;;;;;5013230;28;20557;-88
2023/02/23 07:50:56;;;;;;;2.38;2.28;;;;;;;;;;5013332;28;20053;-88
2023/02/23 07:53:23;;;;;;;4.93;4.63;;;;;;;;;;5012914;28;20066;-88
2023/02/23 07:55:55;;;;;;;4.95;4.50;;;;;;;;;;5013296;28;20065;-88
2023/02/23 07:58:23;;;;;;;4.53;3.97;;;;;;;;;;5013067;28;20046;-88
2023/02/23 08:00:49;;;;;;;5.07;4.68;;;;;;;;;;5013305;28;20094;-88
2023/02/23 08:03:16;;;;;;;6.30;5.70;;;;;;;;;;5012975;28;20104;-88
2023/02/23 08:05:43;;;;;;;6.65;6.25;;;;;;;;;;5012919;28;20093;-87
2023/02/23 08:08:10;;;;;;;4.75;4.00;;;;;;;;;;5012897;28;20046;-88
2023/02/23 08:10:37;;;;;;;4.63;4.38;;;;;;;;;;5024269;28;20128;-88
2023/02/23 08:13:04;;;;;;;5.05;4.75;;;;;;;;;;5032291;28;20118;-88
2023/02/23 08:15:32;;;;;;;5.40;5.10;;;;;;;;;;5032346;28;20392;-88
2023/02/23 08:17:58;;;;;;;5.80;5.50;;;;;;;;;;5032853;28;20049;-88
2023/02/23 08:20:26;;;;;;;4.43;4.20;;;;;;;;;;5032403;28;20111;-88
2023/02/23 08:22:53;;;;;;;3.97;3.78;;;;;;;;;;5032631;28;20050;-88
2023/02/23 08:25:20;;;;;;;7.95;7.45;;;;;;;;;;5032171;28;20099;-88
2023/02/23 08:27:46;;;;;;;5.47;4.97;;;;;;;;;;5032795;28;20073;-87
2023/02/23 08:30:14;;;;;;;5.75;5.35;;;;;;;;;;5032022;28;20045;-87
2023/02/23 08:32:42;;;;;;;4.82;4.25;;;;;;;;;;5032562;28;20053;-87
2023/02/23 08:35:09;;;;;;;6.25;5.63;;;;;;;;;;5032170;28;20095;-88
2023/02/23 08:37:36;;;;;;;6.03;5.63;;;;;;;;;;5032451;28;20073;-87
2023/02/23 08:40:03;;;;;;;5.32;5.07;;;;;;;;;;5032044;28;20050;-88
2023/02/23 08:42:29;;;;;;;4.20;3.90;;;;;;;;;;5032005;28;20065;-88
2023/02/23 08:44:56;;;;;;;5.00;4.57;;;;;;;;;;5031889;28;20497;-87
2023/02/23 08:47:23;;;;;;;5.05;4.65;;;;;;;;;;5031889;28;20054;-88
2023/02/23 08:49:53;;;;;;;9.80;5.13;;;;;;;;;;5032116;28;20483;-88
2023/02/23 08:52:19;;;;;;;5.32;4.65;;;;;;;;;;5032131;28;20050;-87
2023/02/23 08:54:46;;;;;;;4.68;4.35;;;;;;;;;;5030378;28;20057;-87
2023/02/23 08:57:13;;;;;;;5.47;5.10;;;;;;;;;;5012269;28;20053;-87
2023/02/23 08:59:40;;;;;;;7.75;7.13;;;;;;;;;;5012578;28;20045;-87
2023/02/23 09:02:07;;;;;;;4.70;4.38;;;;;;;;;;5032206;28;20080;-87
2023/02/23 09:04:34;;;;;;;3.63;3.45;;;;;;;;;;5032358;28;20049;-87
2023/02/23 09:07:02;;;;;;;5.82;5.28;;;;;;;;;;5012541;28;20145;-88
2023/02/23 09:09:28;;;;;;;6.28;5.78;;;;;;;;;;5012001;28;20062;-87
2023/02/23 09:11:55;;;;;;;3.45;3.20;;;;;;;;;;5012237;28;20111;-88
2023/02/23 09:14:21;;;;;;;4.53;4.28;;;;;;;;;;5011937;28;20050;-87
2023/02/23 09:16:48;;;;;;;4.80;4.10;;;;;;;;;;5012353;28;20108;-87
2023/02/23 09:19:14;;;;;;;5.22;4.45;;;;;;;;;;5012063;28;20072;-88
2023/02/23 09:21:43;;;;;;;6.95;6.22;;;;;;;;;;5012239;28;20046;-87
2023/02/23 09:24:11;;;;;;;4.30;4.00;;;;;;;;;;5011948;28;20504;-87
2023/02/23 09:26:38;;;;;;;5.20;3.85;;;;;;;;;;5014143;28;20458;-87
2023/02/23 09:29:05;;;;;;;6.10;5.75;;;;;;;;;;5015553;28;20085;-88
2023/02/23 09:31:32;;;;;;;4.65;4.38;;;;;;;;;;5015753;28;20046;-88
2023/02/23 09:34:00;;;;;;;6.05;5.55;;;;;;;;;;5015464;28;20057;-87
2023/02/23 09:36:27;;;;;;;5.32;4.75;;;;;;;;;;5015141;28;20128;-87
2023/02/23 09:38:56;;;;;;;4.68;4.28;;;;;;;;;;5015166;28;20096;-87
2023/02/23 09:41:32;;;;;;;3.38;3.17;;;;;;;;;;5014852;28;20096;-88
2023/02/23 09:43:59;;;;;;;;;;;;;;;;;;5015676;28;20081;-88
2023/02/23 09:46:29;;;;;;;5.82;5.53;;;;;;;;;;5015104;28;19921;-88
2023/02/23 09:48:56;;;;;;;9.25;8.07;;;;;;;;;;5014955;28;20642;-87
2023/02/23 09:51:23;;;;;;;6.82;5.22;;;;;;;;;;5015243;28;20046;-88
2023/02/23 09:53:52;;;;;;;5.93;4.47;;;;;;;;;;5015284;28;20492;-88
2023/02/23 09:56:21;;;;;;;7.78;6.93;;;;;;;;;;5014760;28;20054;-87
2023/02/23 09:58:49;;;;;;;5.10;4.35;;;;;;;;;;5014941;28;20418;-89
2023/02/23 10:01:31;;;;;;;7.80;7.20;;;;;;;;;;5014742;28;20050;-88
2023/02/23 10:03:59;;;;;;;5.95;5.43;;;;;;;;;;5012246;28;20046;-88
2023/02/23 10:06:26;;;;;;;6.22;5.72;;;;;;;;;;5014573;28;20096;-88
2023/02/23 10:08:59;;;;;;;6.55;6.13;;;;;;;;;;5014725;28;20050;-88
2023/02/23 10:11:29;;;;;;;6.05;5.57;;;;;;;;;;5014851;28;20109;-89
2023/02/23 10:14:04;;;;;;;6.97;6.57;;;;;;;;;;5014863;28;20100;-88
2023/02/23 10:16:35;;;;;;;7.85;7.35;;;;;;;;;;5026243;28;20112;-88
2023/02/23 10:19:05;;;;;;;7.20;6.32;;;;;;;;;;5034210;28;20100;-88
2023/02/23 10:21:34;;;;;;;6.43;5.93;;;;;;;;;;5022503;28;20681;-88
2023/02/23 10:24:02;;;;;;;8.35;6.82;;;;;;;;;;5014763;28;20050;-86
2023/02/23 10:26:33;;;;;;;6.28;5.80;;;;;;;;;;5014711;28;20116;-87
2023/02/23 10:29:01;;;;;;;8.80;8.05;;;;;;;;;;5014309;28;20100;-86
2023/02/23 10:31:30;;;;;;;8.55;7.93;;;;;;;;;;5014713;28;20045;-86
2023/02/23 10:33:58;;;;;;;11.35;9.80;;;;;;;;;;5014083;28;20049;-89
2023/02/23 10:36:31;;;;;;;9.73;8.82;;;;;;;;;;5013635;28;20046;-86
2023/02/23 10:38:58;;;;;;;6.18;5.57;;;;;;;;;;5014379;28;20046;-86
2023/02/23 10:41:24;;;;;;;8.25;6.85;;;;;;;;;;5014087;28;20054;-89
2023/02/23 10:43:51;;;;;;;11.23;10.57;;;;;;;;;;5014384;28;20723;-87
2023/02/23 10:46:21;;;;;;;10.48;9.43;;;;;;;;;;5014217;28;20546;-87
2023/02/23 10:48:49;;;;;;;9.98;9.30;;;;;;;;;;5014352;28;20050;-86
2023/02/23 10:51:18;;;;;;;6.80;6.25;;;;;;;;;;5014013;28;20046;-86
2023/02/23 10:53:45;;;;;;;8.70;8.10;;;;;;;;;;5014221;28;20058;-89
2023/02/23 10:56:12;;;;;;;9.68;8.93;;;;;;;;;;5014029;28;20116;-86
2023/02/23 10:58:40;;;;;;;9.77;8.88;;;;;;;;;;5013772;28;20069;-86
2023/02/23 11:01:07;;;;;;;9.52;8.82;;;;;;;;;;5019634;28;20049;-86
2023/02/23 11:03:36;;;;;;;9.35;8.75;;;;;;;;;;5033669;28;20053;-86
2023/02/23 11:06:02;;;;;;;10.38;9.57;;;;;;;;;;5033032;28;20045;-88
2023/02/23 11:08:31;;;;;;;7.47;6.97;;;;;;;;;;5033189;28;20107;-87
2023/02/23 11:11:17;;;;;;;8.25;7.53;;;;;;;;;;5033487;28;20041;-86
2023/02/23 11:13:45;;;;;;;12.05;10.70;;;;;;;;;;5034274;28;20055;-87
2023/02/23 11:16:13;;;;;;;10.70;10.00;;;;;;;;;;5033290;28;20045;-86
2023/02/23 11:18:41;;;;;;;9.70;9.05;;;;;;;;;;5033626;28;20566;-87
2023/02/23 11:21:12;;;;;;;8.20;7.47;;;;;;;;;;5028583;28;20125;-87
2023/02/23 11:23:39;;;;;;;10.98;7.03;;;;;;;;;;5015029;28;20053;-88
2023/02/23 11:26:21;;;;;;;11.98;11.05;;;;;;;;;;5017949;28;20042;-86
2023/02/23 11:28:51;;;;;;;8.88;8.18;;;;;;;;;;5021897;28;20045;-87
2023/02/23 11:31:19;;;;;;;6.85;6.28;;;;;;;;;;5021113;28;20108;-87
2023/02/23 11:33:47;;;;;;;11.43;10.65;;;;;;;;;;5022053;28;20073;-87
2023/02/23 11:36:16;;;;;;;9.30;8.50;;;;;;;;;;5022246;28;20049;-87
2023/02/23 11:38:44;;;;;;;8.88;8.23;;;;;;;;;;5013148;28;20049;-87
2023/02/23 11:41:22;;;;;;;8.55;8.00;;;;;;;;;;5013283;28;20168;-87
2023/02/23 11:43:49;;;;;;;9.10;8.30;;;;;;;;;;5013723;28;20100;-87
2023/02/23 11:46:16;;;;;;;12.13;9.65;;;;;;;;;;5018258;28;20433;-87
2023/02/23 11:48:48;;;;;;;8.00;7.38;;;;;;;;;;5032457;28;20099;-87
2023/02/23 11:51:24;;;;;;;12.20;11.27;;;;;;;;;;5032619;28;20454;-88
2023/02/23 11:53:50;;;;;;;8.07;7.53;;;;;;;;;;5033210;28;20111;-87
2023/02/23 11:56:19;;;;;;;9.57;8.93;;;;;;;;;;5032466;28;20111;-88
2023/02/23 11:58:48;;;;;;;9.02;8.35;;;;;;;;;;5032735;28;20042;-88
2023/02/23 12:01:16;;;;;;;7.55;7.13;;;;;;;;;;5032524;28;20073;-88
2023/02/23 12:03:46;;;;;;;13.00;10.18;;;;;;;;;;5032440;28;20049;-87
2023/02/23 12:06:26;;;;;;;7.32;6.72;;;;;;;;;;5032395;28;20412;-88
2023/02/23 12:08:58;;;;;;;11.05;9.23;;;;;;;;;;5033569;28;20050;-87
2023/02/23 12:11:26;;;;;;;11.13;10.32;;;;;;;;;;5033194;28;20499;-88
2023/02/23 12:13:55;;;;;;;9.30;8.70;;;;;;;;;;5032979;28;20049;-88
2023/02/23 12:16:25;;;;;;;8.13;7.60;;;;;;;;;;5031968;28;20053;-88
2023/02/23 12:18:55;;;;;;;10.70;10.05;;;;;;;;;;5032599;28;20045;-88
2023/02/23 12:21:27;;;;;;;8.98;8.40;;;;;;;;;;5028833;28;20053;-88
2023/02/23 12:24:03;;;;;;;12.15;9.90;;;;;;;;;;5013485;28;20053;-88
2023/02/23 12:26:31;;;;;;;10.57;9.95;;;;;;;;;;5012888;28;20049;-87
2023/02/23 12:29:01;;;;;;;9.70;9.18;;;;;;;;;;5012634;28;20092;-88
2023/02/23 12:31:27;;;;;;;;;;;;;;;;;;5014699;28;20100;-88
2023/02/23 12:33:57;;;;;;;7.80;7.25;;;;;;;;;;5017898;28;19933;-88
2023/02/23 12:36:30;;;;;;;8.73;8.30;;;;;;;;;;5024732;28;20053;-87
2023/02/23 12:39:00;;;;;;;8.05;7.65;;;;;;;;;;5035739;28;20046;-87
2023/02/23 12:41:27;;;;;;;;;;;;;;;;;;5029823;28;20105;-88
2023/02/23 12:43:56;;;;;;;9.02;8.55;;;;;;;;;;5013209;28;19921;-87
2023/02/23 12:46:25;;;;;;;10.27;9.57;;;;;;;;;;5012383;28;20557;-88
2023/02/23 12:48:56;;;;;;;4.32;4.13;;;;;;;;;;5012511;28;20416;-87
2023/02/23 12:51:26;;;;;;;9.82;9.15;;;;;;;;;;5012370;28;20500;-87
2023/02/23 12:53:52;;;;;;;7.40;6.90;;;;;;;;;;5012120;28;20500;-87
2023/02/23 12:56:31;;;;;;;9.45;8.98;;;;;;;;;;5012431;28;20049;-88
2023/02/23 12:59:01;;;;;;;6.32;6.03;;;;;;;;;;5012664;28;20050;-87
2023/02/23 13:01:29;;;;;;;7.75;7.40;;;;;;;;;;5016049;28;20057;-87
2023/02/23 13:04:08;;;;;;;10.48;10.00;;;;;;;;;;5016408;28;20089;-87
2023/02/23 13:06:38;;;;;;;8.55;8.13;;;;;;;;;;5015993;28;20762;-89
2023/02/23 13:09:17;;;;;;;6.93;6.57;;;;;;;;;;5016141;28;20112;-87
2023/02/23 13:11:53;;;;;;;6.65;6.18;;;;;;;;;;5015994;28;20064;-88
2023/02/23 13:14:23;;;;;;;8.88;8.45;;;;;;;;;;5016105;28;20053;-88
2023/02/23 13:16:52;;;;;;;8.80;8.35;;;;;;;;;;5015936;28;20054;-87
2023/02/23 13:19:23;;;;;;;7.85;7.22;;;;;;;;;;5015861;28;20052;-88
2023/02/23 13:21:53;;;;;;;8.02;7.63;;;;;;;;;;5015867;28;20103;-87
2023/02/23 13:24:22;;;;;;;8.55;6.82;;;;;;;;;;5016054;28;20533;-88
2023/02/23 13:26:53;;;;;;;7.20;6.57;;;;;;;;;;5016102;28;20462;-87
2023/02/23 13:29:26;;;;;;;5.85;5.55;;;;;;;;;;5019564;28;20049;-88
2023/02/23 13:31:53;;;;;;;5.53;5.22;;;;;;;;;;5017896;28;20054;-87
2023/02/23 13:34:23;;;;;;;8.20;7.80;;;;;;;;;;5015914;28;20049;-87
2023/02/23 13:36:50;;;;;;;5.82;5.43;;;;;;;;;;5015533;28;20574;-87
2023/02/23 13:39:46;;;;;;;9.20;8.70;;;;;;;;;;5015856;28;20570;-87
2023/02/23 13:42:24;;;;;;;7.00;6.60;;;;;;;;;;4954862;28;20438;-87
2023/02/23 13:44:54;;;;;;;6.35;5.97;;;;;;;;;;4955321;29;20047;-87
2023/02/23 13:47:33;;;;;;;5.72;5.43;;;;;;;;;;4954796;28;20047;-88
2023/02/23 13:50:03;;;;;;;7.25;6.75;;;;;;;;;;4954759;29;20055;-87
2023/02/23 13:52:32;;;;;;;7.28;6.78;;;;;;;;;;4962524;28;20043;-88
2023/02/23 13:55:02;;;;;;;9.70;9.10;;;;;;;;;;4973746;28;20137;-88
2023/02/23 13:57:30;;;;;;;9.38;8.82;;;;;;;;;;4973679;28;20047;-87
2023/02/23 13:59:57;;;;;;;8.50;8.02;;;;;;;;;;4973727;28;20105;-87
2023/02/23 14:02:33;;;;;;;7.03;6.47;;;;;;;;;;4973366;28;20380;-87
2023/02/23 14:05:02;;;;;;;7.03;6.43;;;;;;;;;;4973768;28;20582;-88
2023/02/23 14:07:29;;;;;;;8.85;8.30;;;;;;;;;;4973752;28;20050;-88
2023/02/23 14:09:58;;;;;;;10.93;9.93;;;;;;;;;;4973828;28;20577;-88
2023/02/23 14:12:26;;;;;;;7.45;7.00;;;;;;;;;;4972727;28;20478;-87
2023/02/23 14:14:54;;;;;;;4.63;4.40;;;;;;;;;;4973600;28;20499;-87
2023/02/23 14:17:40;;;;;;;9.68;9.15;;;;;;;;;;4987997;28;20050;-87
2023/02/23 14:20:14;;;;;;;6.25;5.93;;;;;;;;;;5034864;28;20045;-88
2023/02/23 14:22:55;;;;;;;7.65;7.15;;;;;;;;;;5027440;28;20073;-87
2023/02/23 14:25:40;;;;;;;6.20;5.88;;;;;;;;;;5014001;28;20116;-87
2023/02/23 14:28:22;;;;;;;7.47;7.13;;;;;;;;;;5014535;28;20488;-87
2023/02/23 14:30:54;;;;;;;8.65;8.07;;;;;;;;;;5014504;28;20057;-88
2023/02/23 14:33:35;;;;;;;9.75;9.25;;;;;;;;;;5014230;28;20163;-88
2023/02/23 14:36:02;;;;;;;5.63;5.20;;;;;;;;;;5011714;28;20467;-88
2023/02/23 14:38:33;;;;;;;6.05;5.65;;;;;;;;;;5014205;28;20570;-88
2023/02/23 14:41:00;;;;;;;6.65;6.22;;;;;;;;;;5014313;28;20053;-89
2023/02/23 14:43:32;;;;;;;8.52;8.02;;;;;;;;;;5027362;28;20077;-89
2023/02/23 14:46:01;;;;;;;9.50;8.88;;;;;;;;;;5034121;28;20103;-88
2023/02/23 14:48:27;;;;;;;9.13;8.65;;;;;;;;;;5033773;28;20114;-87
2023/02/23 14:51:10;;;;;;;7.68;7.20;;;;;;;;;;5033782;28;20057;-88
2023/02/23 14:53:38;;;;;;;6.53;6.03;;;;;;;;;;5033423;28;20053;-88
2023/02/23 14:56:04;;;;;;;8.27;7.80;;;;;;;;;;5033759;28;20064;-87
2023/02/23 14:58:32;;;;;;;8.50;7.95;;;;;;;;;;5033632;28;20057;-87
2023/02/23 15:01:00;;;;;;;7.10;6.63;;;;;;;;;;5033767;28;20045;-87
2023/02/23 15:03:26;;;;;;;7.95;7.03;;;;;;;;;;5033348;28;20046;-88
2023/02/23 15:05:55;;;;;;;7.15;6.72;;;;;;;;;;5033707;28;20103;-88
2023/02/23 15:08:23;;;;;;;8.10;7.40;;;;;;;;;;5022748;28;20049;-89
2023/02/23 15:10:50;;;;;;;7.07;6.47;;;;;;;;;;5013845;28;20050;-91
2023/02/23 15:13:28;;;;;;;8.15;7.65;;;;;;;;;;5013338;28;20558;-87
2023/02/23 15:15:55;;;;;;;5.97;5.55;;;;;;;;;;5013619;28;20470;-90
2023/02/23 15:18:27;;;;;;;7.10;6.63;;;;;;;;;;5013790;28;20049;-87
2023/02/23 15:20:53;;;;;;;9.38;8.93;;;;;;;;;;5013597;28;20120;-88
2023/02/23 15:23:20;;;;;;;10.27;9.80;;;;;;;;;;5013482;28;20089;-87
2023/02/23 15:25:49;;;;;;;6.47;6.07;;;;;;;;;;5013378;28;20511;-87
2023/02/23 15:28:24;;;;;;;6.57;6.15;;;;;;;;;;5013229;28;20133;-88
2023/02/23 15:30:53;;;;;;;6.35;5.95;;;;;;;;;;5013050;28;20056;-87
2023/02/23 15:33:22;;;;;;;7.20;6.80;;;;;;;;;;5013253;28;20049;-87
2023/02/23 15:35:51;;;;;;;4.60;4.25;;;;;;;;;;5013141;28;20050;-88
2023/02/23 15:38:20;;;;;;;8.05;7.55;;;;;;;;;;5013233;28;20049;-88
2023/02/23 15:40:47;;;;;;;6.10;5.75;;;;;;;;;;5013145;28;20111;-87
2023/02/23 15:43:14;;;;;;;5.35;4.95;;;;;;;;;;5013250;28;20092;-89
2023/02/23 15:45:45;;;;;;;9.05;8.55;;;;;;;;;;5013446;28;20112;-87
2023/02/23 15:48:17;;;;;;;6.13;5.72;;;;;;;;;;5013163;28;20050;-88
2023/02/23 15:50:48;;;;;;;7.03;6.63;;;;;;;;;;5013356;28;20495;-87
2023/02/23 15:53:22;;;;;;;7.20;6.80;;;;;;;;;;5012579;28;20046;-87
2023/02/23 15:55:49;;;;;;;4.47;4.18;;;;;;;;;;5012950;28;20104;-87
2023/02/23 15:58:20;;;;;;;6.63;6.32;;;;;;;;;;5013026;28;20041;-88
2023/02/23 16:00:50;;;;;;;6.43;6.13;;;;;;;;;;5013086;28;20053;-88
2023/02/23 16:03:24;;;;;;;6.90;6.50;;;;;;;;;;5019803;28;20128;-88
2023/02/23 16:05:55;;;;;;;6.30;5.90;;;;;;;;;;5032455;28;20470;-88
2023/02/23 16:08:24;;;;;;;6.82;6.50;;;;;;;;;;5025159;28;20092;-88
2023/02/23 16:10:53;;;;;;;6.90;6.40;;;;;;;;;;5012628;28;20112;-88